Terminal Aerodrome Forecast
Issued by NWS

Home | Current Version | Previous Version | Text Only | Print | Product List | Glossary On
Versions: 1 2 3 4 5 6 7 8 9 10 11 12 13 14 15 16
473
FTUS43 KGRR 281140
TAFAZO
TAF
KAZO 281140Z 2812/0112 14011KT 6SM BR VCSH SCT015 BKN035
     FM281500 17011KT 5SM BR VCSH OVC015
     FM282200 19011KT 2SM BR VCTS OVC008CB
     FM010600 21013KT 4SM -RA BR OVC005
     FM011000 21008KT 5SM BR SCT005 OVC035=

USA.gov is the U.S. government's official web portal to all federal, state and local government web resources and services.